»·PEaware :: AAL2572 KSNA-KDFW

AAL2572 :: KSNA-KDFW

FLIGHT INFORMATION

Flight Status: Arrived
Operator:
American Airlines
More flights by this operator :: More flights under this callsign
Pilot: Drew Leevy (13237)
Aircraft: BOEING 737-800
(B738)
More flights by this aircraft type
Origin: KSNA John Wayne-Orange Co
United States
Destination: KDFW Dallas-Ft Worth Intl
United States
More flights between these airports :: More routes between these airports
Route: + / GBN293052 INK GEEKY SOCKK3
File this flight plan on PilotEdge
Remarks: PBN / A1B1C1D1S1S2 DOF / 170812 REG / N806SB EET / KZAB0029 KZFW0134 OPR / AAL RMK / TCAS SIMBRIEF
Altitude:
(Current/Filed)
37,000ft
Speed:
(Current/Filed)
460kts
Departed: 12-Aug-17 10:07 AM
Arrived: 12-Aug-17 12:49 PM
Distance/Time
Traveled:
1044nm/2:42
Distance/Time
To Go:
Arrived

Flight Plot

Page will automatically refresh every two minutes.

Flight plan parsing failed; only flown route is shown


Map Options




Map Legend


Flown Route
Filed Route
Departure Airport
Arrival Airport
Navaid (VOR, NDB)
Fix

Horizontal Profiles

Position Reports

Time Latitude Longitude Heading Altitude Ground
Speed
12-Aug-17 09:44 33.680851 -117.861509 136 64ft 0kts
12-Aug-17 09:45 33.680851 -117.861509 136 64ft 0kts
12-Aug-17 09:46 33.680851 -117.861509 136 64ft 0kts
12-Aug-17 09:47 33.680851 -117.861509 136 64ft 0kts
12-Aug-17 09:48 33.680851 -117.861509 136 64ft 0kts
12-Aug-17 09:49 33.680851 -117.861509 136 64ft 0kts
12-Aug-17 09:50 33.680851 -117.861509 136 64ft 0kts
12-Aug-17 09:51 33.680851 -117.861509 136 64ft 0kts
12-Aug-17 09:52 33.680851 -117.861509 136 64ft 0kts
12-Aug-17 09:53 33.680851 -117.861509 136 64ft 0kts
12-Aug-17 09:54 33.680851 -117.861509 136 64ft 0kts
12-Aug-17 09:55 33.680851 -117.861509 136 64ft 0kts
12-Aug-17 09:56 33.680851 -117.861509 136 64ft 0kts
12-Aug-17 09:57 33.680851 -117.861509 136 64ft 0kts
12-Aug-17 09:58 33.680851 -117.861509 136 64ft 0kts
12-Aug-17 09:59 33.680851 -117.861509 136 64ft 0kts
12-Aug-17 10:00 33.680851 -117.861509 136 64ft 0kts
12-Aug-17 10:01 33.680851 -117.861509 136 64ft 0kts
12-Aug-17 10:02 33.680947 -117.861598 156 64ft 3kts
12-Aug-17 10:03 33.681517 -117.861787 202 64ft 0kts
12-Aug-17 10:04 33.681517 -117.861787 202 64ft 0kts
12-Aug-17 10:05 33.681517 -117.861787 202 64ft 0kts
12-Aug-17 10:06 33.681517 -117.861787 202 64ft 0kts
12-Aug-17 10:07 33.680637 -117.863020 297 64ft 0kts
12-Aug-17 10:08 33.680645 -117.863038 297 64ft 1kts
12-Aug-17 10:09 33.681258 -117.865292 209 64ft 0kts
12-Aug-17 10:10 33.657028 -117.880614 207 843ft 157kts
12-Aug-17 10:11 33.600106 -117.894796 188 2650ft 261kts
12-Aug-17 10:12 33.528626 -117.871190 153 6582ft 284kts
12-Aug-17 10:13 33.484068 -117.795428 116 10422ft 296kts
12-Aug-17 10:14 33.487373 -117.690474 66 12914ft 346kts
12-Aug-17 10:15 33.533624 -117.588398 61 12990ft 353kts
12-Aug-17 10:16 33.571779 -117.481992 91 13547ft 368kts
12-Aug-17 10:17 33.546013 -117.367102 112 17205ft 366kts
12-Aug-17 10:18 33.512075 -117.256399 113 20011ft 382kts
12-Aug-17 10:19 33.503245 -117.138263 94 22321ft 407kts
12-Aug-17 10:20 33.500204 -117.002840 94 24728ft 424kts
12-Aug-17 10:21 33.497556 -116.861836 93 27024ft 437kts
12-Aug-17 10:23 33.495980 -116.719281 92 29491ft 436kts
12-Aug-17 10:24 33.494130 -116.572990 92 30482ft 467kts
12-Aug-17 10:25 33.492003 -116.417047 92 32209ft 478kts
12-Aug-17 10:26 33.489813 -116.268327 92 34279ft 471kts
12-Aug-17 10:27 33.487401 -116.114339 92 36070ft 466kts
12-Aug-17 10:28 33.507496 -115.963460 71 36859ft 474kts
12-Aug-17 10:29 33.549939 -115.815891 70 36857ft 479kts
12-Aug-17 10:30 33.593190 -115.667090 70 36856ft 479kts
12-Aug-17 10:31 33.623419 -115.515891 93 36860ft 476kts
12-Aug-17 10:32 33.617770 -115.359475 93 36872ft 476kts
12-Aug-17 10:33 33.612407 -115.205271 94 36901ft 476kts
12-Aug-17 10:34 33.606785 -115.049224 93 36908ft 474kts
12-Aug-17 10:35 33.601052 -114.893440 93 36908ft 473kts
12-Aug-17 10:36 33.594214 -114.738777 96 36908ft 473kts
12-Aug-17 10:37 33.580351 -114.583925 97 36911ft 473kts
12-Aug-17 10:38 33.566463 -114.430003 97 36912ft 473kts
12-Aug-17 10:39 33.553084 -114.283323 97 36906ft 473kts
12-Aug-17 10:40 33.538757 -114.128638 97 36908ft 473kts
12-Aug-17 10:41 33.524328 -113.974827 97 36908ft 473kts
12-Aug-17 10:42 33.509627 -113.820214 97 36909ft 473kts
12-Aug-17 10:43 33.494786 -113.666188 97 36935ft 473kts
12-Aug-17 10:44 33.479406 -113.512331 98 36988ft 473kts
12-Aug-17 10:45 33.461960 -113.358562 98 36994ft 473kts
12-Aug-17 10:46 33.444525 -113.206656 99 36990ft 473kts
12-Aug-17 10:47 33.426692 -113.053102 99 36990ft 473kts
12-Aug-17 10:48 33.408769 -112.899464 99 36990ft 470kts
12-Aug-17 10:49 33.390859 -112.747310 99 36991ft 469kts
12-Aug-17 10:49 33.375661 -112.620438 99 36993ft 469kts
12-Aug-17 10:50 33.357279 -112.468549 99 36987ft 469kts
12-Aug-17 10:51 33.338925 -112.318451 100 36972ft 469kts
12-Aug-17 10:52 33.320219 -112.167000 100 36976ft 469kts
12-Aug-17 10:53 33.301276 -112.015392 100 36983ft 469kts
12-Aug-17 10:54 33.282106 -111.863353 100 36996ft 469kts
12-Aug-17 10:55 33.262802 -111.711829 100 37002ft 469kts
12-Aug-17 10:56 33.243271 -111.559974 100 37009ft 469kts
12-Aug-17 10:57 33.223605 -111.408546 100 37014ft 469kts
12-Aug-17 10:58 33.203918 -111.258429 101 37014ft 468kts
12-Aug-17 10:59 33.183831 -111.106768 101 37019ft 469kts
12-Aug-17 11:00 33.163608 -110.955290 101 37044ft 469kts
12-Aug-17 11:01 33.143281 -110.804459 101 37071ft 469kts
12-Aug-17 11:02 33.122675 -110.653208 101 37082ft 469kts
12-Aug-17 11:03 33.101846 -110.502028 101 37128ft 469kts
12-Aug-17 11:04 33.080853 -110.351245 100 37175ft 470kts
12-Aug-17 11:05 33.059728 -110.200863 101 37172ft 470kts
12-Aug-17 11:06 33.038268 -110.049554 101 37172ft 470kts
12-Aug-17 11:07 33.016636 -109.898351 101 37174ft 471kts
12-Aug-17 11:08 32.996739 -109.761033 100 37165ft 476kts
12-Aug-17 11:09 32.974542 -109.608257 100 37167ft 476kts
12-Aug-17 11:10 32.952170 -109.455674 100 37168ft 476kts
12-Aug-17 11:11 32.929861 -109.304394 101 37161ft 475kts
12-Aug-17 11:12 32.907175 -109.152057 101 37163ft 475kts
12-Aug-17 11:13 32.884629 -109.002142 101 37165ft 473kts
12-Aug-17 11:14 32.861685 -108.850760 101 37213ft 473kts
12-Aug-17 11:15 32.838624 -108.699735 101 37292ft 473kts
12-Aug-17 11:16 32.815300 -108.548269 101 37295ft 472kts
12-Aug-17 11:17 32.791865 -108.397350 101 37296ft 473kts
12-Aug-17 11:18 32.769409 -108.253793 101 37291ft 472kts
12-Aug-17 11:19 32.745543 -108.102484 101 37292ft 472kts
12-Aug-17 11:20 32.721558 -107.951658 101 37289ft 472kts
12-Aug-17 11:21 32.697385 -107.800882 101 37264ft 472kts
12-Aug-17 11:22 32.672999 -107.649994 101 37240ft 472kts
12-Aug-17 11:23 32.648549 -107.500053 101 37231ft 472kts
12-Aug-17 11:24 32.623867 -107.349723 102 37238ft 472kts
12-Aug-17 11:25 32.599129 -107.200117 102 37237ft 472kts
12-Aug-17 11:26 32.574091 -107.049933 102 37237ft 472kts
12-Aug-17 11:27 32.548840 -106.900172 101 37237ft 469kts
12-Aug-17 11:28 32.523519 -106.751232 101 37237ft 467kts
12-Aug-17 11:29 32.498236 -106.603002 101 37237ft 467kts
12-Aug-17 11:30 32.472734 -106.454531 101 37233ft 467kts
12-Aug-17 11:31 32.447254 -106.307244 102 37215ft 467kts
12-Aug-17 11:32 32.421452 -106.159195 102 37211ft 467kts
12-Aug-17 11:33 32.395403 -106.010843 102 37210ft 467kts
12-Aug-17 11:34 32.369290 -105.863182 102 37211ft 467kts
12-Aug-17 11:35 32.342953 -105.715322 102 37211ft 467kts
12-Aug-17 11:36 32.316411 -105.567364 102 37212ft 467kts
12-Aug-17 11:37 32.289781 -105.419938 102 37213ft 467kts
12-Aug-17 11:38 32.263089 -105.273271 102 37196ft 467kts
12-Aug-17 11:39 32.236081 -105.125845 102 37165ft 467kts
12-Aug-17 11:40 32.209179 -104.978891 103 37150ft 464kts
12-Aug-17 11:41 32.182309 -104.833225 103 37145ft 460kts
12-Aug-17 11:42 32.155246 -104.688613 103 37146ft 460kts
12-Aug-17 11:43 32.127936 -104.543698 103 37147ft 460kts
12-Aug-17 11:44 32.100598 -104.399582 103 37147ft 460kts
12-Aug-17 11:45 32.073081 -104.255475 104 37144ft 460kts
12-Aug-17 11:46 32.045321 -104.111100 104 37145ft 460kts
12-Aug-17 11:47 32.017478 -103.967213 104 37145ft 460kts
12-Aug-17 11:48 31.989378 -103.822912 104 37140ft 460kts
12-Aug-17 11:49 31.961222 -103.679249 104 37129ft 460kts
12-Aug-17 11:50 31.932754 -103.534910 104 37128ft 460kts
12-Aug-17 11:51 31.904148 -103.390797 104 37128ft 460kts
12-Aug-17 11:52 31.879090 -103.248325 91 37109ft 462kts
12-Aug-17 11:53 31.894233 -103.100693 82 37130ft 460kts
12-Aug-17 11:54 31.913279 -102.955410 83 37130ft 453kts
12-Aug-17 11:55 31.931925 -102.812341 83 37150ft 453kts
12-Aug-17 11:56 31.950694 -102.667899 83 37167ft 453kts
12-Aug-17 11:57 31.969195 -102.524377 83 37167ft 453kts
12-Aug-17 11:58 31.987642 -102.379938 83 37164ft 453kts
12-Aug-17 11:59 32.005785 -102.236595 83 37158ft 453kts
12-Aug-17 12:00 32.023850 -102.092483 83 37152ft 453kts
12-Aug-17 12:01 32.041729 -101.948499 83 37150ft 453kts
12-Aug-17 12:02 32.059492 -101.804101 83 37155ft 453kts
12-Aug-17 12:03 32.077049 -101.659969 83 37158ft 453kts
12-Aug-17 12:04 32.094455 -101.515687 83 37158ft 453kts
12-Aug-17 12:05 32.111573 -101.372453 83 37154ft 453kts
12-Aug-17 12:06 32.128593 -101.228567 84 37153ft 452kts
12-Aug-17 12:07 32.145504 -101.084158 84 37153ft 452kts
12-Aug-17 12:08 32.162065 -100.938962 82 37148ft 463kts
12-Aug-17 12:09 32.178835 -100.792529 80 37136ft 450kts
12-Aug-17 12:10 32.195447 -100.648705 81 37139ft 451kts
12-Aug-17 12:11 32.211657 -100.504758 81 37138ft 451kts
12-Aug-17 12:12 32.227733 -100.360204 81 37138ft 451kts
12-Aug-17 12:13 32.243491 -100.217032 81 37124ft 451kts
12-Aug-17 12:14 32.259203 -100.072707 81 37103ft 451kts
12-Aug-17 12:15 32.274775 -99.928134 81 37101ft 451kts
12-Aug-17 12:16 32.284929 -99.783270 85 37103ft 452kts
12-Aug-17 12:17 32.292666 -99.637314 85 37106ft 452kts
12-Aug-17 12:18 32.299832 -99.499129 85 36663ft 457kts
12-Aug-17 12:19 32.307158 -99.354457 85 35129ft 453kts
12-Aug-17 12:20 32.314369 -99.208872 85 33661ft 458kts
12-Aug-17 12:21 32.321539 -99.060441 85 31934ft 465kts
12-Aug-17 12:22 32.328575 -98.911594 85 29957ft 452kts
12-Aug-17 12:23 32.335151 -98.771320 85 27681ft 423kts
12-Aug-17 12:24 32.341289 -98.637302 85 25471ft 412kts
12-Aug-17 12:25 32.347059 -98.506918 86 23322ft 399kts
12-Aug-17 12:26 32.352510 -98.380358 86 21163ft 388kts
12-Aug-17 12:27 32.357423 -98.263811 87 19109ft 377kts
12-Aug-17 12:28 32.362344 -98.144189 87 16935ft 365kts
12-Aug-17 12:29 32.366989 -98.028501 87 15274ft 357kts
12-Aug-17 12:31 32.371466 -97.914538 87 13706ft 349kts
12-Aug-17 12:32 32.375844 -97.803124 88 12131ft 341kts
12-Aug-17 12:33 32.379957 -97.695697 88 10692ft 320kts
12-Aug-17 12:34 32.404820 -97.604103 47 9388ft 303kts
12-Aug-17 12:35 32.462214 -97.534507 50 8232ft 300kts
12-Aug-17 12:36 32.483054 -97.443946 83 7067ft 291kts
12-Aug-17 12:37 32.492434 -97.351436 84 5897ft 287kts
12-Aug-17 12:38 32.511337 -97.264738 46 5130ft 284kts
12-Aug-17 12:39 32.579129 -97.225823 6 5028ft 279kts
12-Aug-17 12:40 32.655083 -97.219011 3 5029ft 278kts
12-Aug-17 12:41 32.729910 -97.212625 3 5061ft 256kts
12-Aug-17 12:42 32.797976 -97.207247 1 5058ft 251kts
12-Aug-17 12:43 32.866437 -97.204676 1 5033ft 252kts
12-Aug-17 12:44 32.935236 -97.201254 1 5013ft 242kts
12-Aug-17 12:45 32.993735 -97.184885 23 4139ft 220kts
12-Aug-17 12:46 33.045847 -97.156522 23 3437ft 204kts
12-Aug-17 12:47 33.069238 -97.100573 82 2928ft 206kts
12-Aug-17 12:48 33.069781 -97.034471 118 2720ft 207kts
12-Aug-17 12:49 33.022705 -97.019814 202 2528ft 188kts
12-Aug-17 12:50 32.980465 -97.025476 182 1820ft 137kts
12-Aug-17 12:51 32.942766 -97.025824 181 1177ft 139kts
12-Aug-17 12:52 32.905613 -97.026062 180 614ft 103kts
12-Aug-17 12:53 32.897490 -97.028911 269 614ft 14kts
12-Aug-17 12:54 32.896164 -97.034101 216 614ft 17kts

Navigation Log

Ident Type
Flight plan parsing failed, navigation log unavailable